Time;durP1;ratioP1;P1;durP2;ratioP2;P2;SDS_P1;SDS_P2;PMS_P1;PMS_P2;Temp;Humidity;BMP_temperature;BMP_pressure;BME280_temperature;BME280_humidity;BME280_pressure;Samples;Min_cycle;Max_cycle;Signal;HPM_P1;HPM_P2
2022/05/01 00:02:24;;;;;;;8.97;5.63;;;15.60;65.90;;;;;;5026921;28;20199;-82
2022/05/01 00:04:52;;;;;;;8.03;5.73;;;15.50;65.70;;;;;;5022024;28;20203;-81
2022/05/01 00:07:19;;;;;;;8.20;5.80;;;15.50;65.70;;;;;;5010009;28;20214;-82
2022/05/01 00:09:47;;;;;;;6.60;5.00;;;15.50;65.80;;;;;;5038116;28;20203;-81
2022/05/01 00:12:15;;;;;;;6.57;5.70;;;15.40;65.80;;;;;;5008566;28;20217;-82
2022/05/01 00:14:42;;;;;;;6.70;5.40;;;15.40;65.40;;;;;;5008397;28;20241;-82
2022/05/01 00:17:09;;;;;;;5.40;4.90;;;15.30;65.20;;;;;;5048806;28;20205;-81
2022/05/01 00:19:37;;;;;;;9.00;6.93;;;15.30;65.50;;;;;;5056324;28;20194;-81
2022/05/01 00:22:18;;;;;;;9.03;5.90;;;15.20;65.90;;;;;;5028325;28;20293;-82
2022/05/01 00:24:46;;;;;;;6.27;5.67;;;15.20;66.40;;;;;;5057303;28;20193;-81
2022/05/01 00:27:13;;;;;;;9.30;6.30;;;15.20;67.10;;;;;;5044887;28;20210;-81
2022/05/01 00:29:41;;;;;;;10.50;5.50;;;15.10;67.00;;;;;;5024293;28;20307;-82
2022/05/01 00:32:09;;;;;;;7.17;6.03;;;15.10;67.00;;;;;;5042685;28;20210;-81
2022/05/01 00:37:22;;;;;;;6.93;6.07;;;15.10;67.60;;;;;;5040820;28;20205;-81
2022/05/01 00:39:49;;;;;;;10.40;6.70;;;15.10;67.80;;;;;;5036059;28;20207;-81
2022/05/01 00:42:17;;;;;;;6.17;5.57;;;15.00;67.90;;;;;;5002613;28;20203;-82
2022/05/01 00:44:45;;;;;;;7.40;6.27;;;15.00;68.20;;;;;;5021381;28;20211;-81
2022/05/01 00:47:12;;;;;;;7.83;6.13;;;15.00;68.40;;;;;;5061483;28;20218;-82
2022/05/01 00:49:40;;;;;;;8.57;6.10;;;14.90;69.00;;;;;;5039795;28;20217;-81
2022/05/01 00:52:10;;;;;;;8.30;6.77;;;15.00;69.70;;;;;;5037829;28;20701;-81
2022/05/01 00:54:41;;;;;;;6.73;5.93;;;14.90;70.00;;;;;;5032518;28;20329;-81
2022/05/01 00:57:10;;;;;;;9.00;6.03;;;14.90;70.10;;;;;;5031708;28;20216;-81
2022/05/01 00:59:39;;;;;;;7.40;6.20;;;14.80;70.30;;;;;;5037381;28;20213;-81
2022/05/01 01:02:06;;;;;;;8.93;7.30;;;14.80;70.60;;;;;;5026285;28;20215;-82
2022/05/01 01:04:34;;;;;;;9.60;6.63;;;14.80;70.90;;;;;;5040615;28;20287;-81
2022/05/01 01:07:03;;;;;;;9.40;6.13;;;14.80;71.10;;;;;;5053063;28;20206;-82
2022/05/01 01:09:30;;;;;;;7.83;6.20;;;14.80;71.20;;;;;;5039000;28;20214;-81
2022/05/01 01:14:43;;;;;;;7.97;7.17;;;14.70;71.50;;;;;;5024769;28;20295;-81
2022/05/01 01:17:11;;;;;;;8.27;7.33;;;14.70;71.60;;;;;;5033697;28;20208;-81
2022/05/01 01:19:38;;;;;;;9.30;7.37;;;14.70;71.60;;;;;;5034053;28;20204;-82
2022/05/01 01:22:08;;;;;;;11.47;6.83;;;14.60;71.40;;;;;;5055611;28;20652;-81
2022/05/01 01:24:43;;;;;;;11.53;8.13;;;14.70;71.70;;;;;;5054379;28;20207;-81
2022/05/01 01:27:11;;;;;;;10.57;7.97;;;14.60;72.00;;;;;;5015204;28;20217;-81
2022/05/01 01:31:40;;;;;;;15.77;8.07;;;14.60;72.30;;;;;;5028469;28;20257;-81
2022/05/01 01:32:46;;;;;;;9.77;7.80;;;14.50;72.50;;;;;;5052847;28;20291;-81
2022/05/01 01:35:15;;;;;;;10.30;7.30;;;14.50;72.50;;;;;;5039141;28;20690;-81
2022/05/01 01:37:46;;;;;;;10.13;7.87;;;14.50;72.60;;;;;;5035461;28;20914;-81
2022/05/01 01:40:28;;;;;;;8.43;7.60;;;14.50;72.30;;;;;;5025043;28;20283;-81
2022/05/01 01:42:57;;;;;;;9.17;7.67;;;14.40;72.30;;;;;;5005112;28;20874;-81
2022/05/01 01:45:28;;;;;;;11.70;7.50;;;14.40;72.60;;;;;;5020981;28;20219;-81
2022/05/01 01:48:07;;;;;;;7.90;6.47;;;14.40;72.70;;;;;;5026356;28;20221;-81
2022/05/01 01:50:35;;;;;;;11.13;7.50;;;14.30;72.90;;;;;;5031648;28;20205;-81
2022/05/01 01:53:02;;;;;;;7.83;7.07;;;14.40;73.50;;;;;;5036560;28;20273;-81
2022/05/01 01:55:31;;;;;;;12.17;7.53;;;14.30;73.90;;;;;;5030466;28;20577;-81
2022/05/01 01:57:59;;;;;;;9.50;7.33;;;14.30;74.30;;;;;;5047878;28;20247;-81
2022/05/01 02:00:29;;;;;;;9.13;8.23;;;14.30;74.70;;;;;;5033690;28;20228;-81
2022/05/01 02:02:58;;;;;;;11.17;8.43;;;14.30;74.70;;;;;;5048560;28;20644;-83
2022/05/01 02:05:26;;;;;;;10.70;8.33;;;14.30;74.60;;;;;;5043503;28;20236;-81
2022/05/01 02:07:54;;;;;;;9.87;8.60;;;14.30;74.60;;;;;;5041327;28;20241;-81
2022/05/01 02:10:22;;;;;;;9.73;7.93;;;14.30;74.60;;;;;;5031900;28;20228;-81
2022/05/01 02:12:50;;;;;;;11.33;8.70;;;14.30;74.00;;;;;;5029472;28;20202;-81
2022/05/01 02:15:18;;;;;;;9.03;8.13;;;14.30;73.60;;;;;;5028047;28;20223;-82
2022/05/01 02:17:47;;;;;;;13.20;8.37;;;14.40;73.50;;;;;;5026892;28;20216;-81
2022/05/01 02:20:15;;;;;;;10.30;8.53;;;14.40;73.40;;;;;;5023852;28;20206;-81
2022/05/01 02:22:43;;;;;;;9.17;8.27;;;14.50;73.30;;;;;;5022482;28;20607;-81
2022/05/01 02:25:10;;;;;;;9.67;8.40;;;14.40;73.30;;;;;;5025596;28;20217;-81
2022/05/01 02:27:37;;;;;;;9.33;7.93;;;14.40;73.60;;;;;;5034151;28;20259;-81
2022/05/01 02:30:07;;;;;;;11.57;8.90;;;14.40;73.90;;;;;;5040098;28;20239;-81
2022/05/01 02:32:38;;;;;;;13.77;8.43;;;14.40;74.10;;;;;;5038660;28;20212;-81
2022/05/01 02:35:07;;;;;;;11.27;7.90;;;14.40;74.10;;;;;;5019614;28;20288;-82
2022/05/01 02:37:35;;;;;;;8.93;7.63;;;14.40;74.30;;;;;;5033631;28;20209;-81
2022/05/01 02:40:03;;;;;;;9.97;8.40;;;14.40;74.60;;;;;;5046140;28;20223;-81
2022/05/01 02:42:31;;;;;;;15.20;8.00;;;14.40;74.90;;;;;;5030059;28;20263;-81
2022/05/01 02:44:59;;;;;;;8.37;6.80;;;14.40;75.10;;;;;;5018038;28;20248;-81
2022/05/01 02:47:26;;;;;;;9.77;7.40;;;14.40;75.20;;;;;;5019137;28;20308;-81
2022/05/01 02:49:53;;;;;;;8.00;7.03;;;14.40;75.10;;;;;;5023362;28;20214;-81
2022/05/01 02:52:21;;;;;;;10.07;7.67;;;14.40;74.90;;;;;;5004033;28;20248;-82
2022/05/01 02:54:48;;;;;;;14.43;7.47;;;14.40;74.50;;;;;;5019087;28;20218;-81
2022/05/01 02:57:15;;;;;;;12.57;6.57;;;14.40;74.20;;;;;;5012735;28;20275;-81
2022/05/01 02:59:43;;;;;;;8.33;7.03;;;14.40;73.90;;;;;;5020473;28;20211;-81
2022/05/01 03:02:11;;;;;;;9.50;7.30;;;14.40;73.20;;;;;;5031356;28;20205;-81
2022/05/01 03:04:40;;;;;;;13.37;7.73;;;14.40;72.80;;;;;;5007048;28;20649;-81
2022/05/01 03:07:07;;;;;;;9.93;7.33;;;14.40;72.90;;;;;;5025479;28;20197;-82
2022/05/01 03:09:34;;;;;;;11.20;7.37;;;14.30;73.00;;;;;;5012705;28;20255;-81
2022/05/01 03:12:03;;;;;;;7.27;6.57;;;14.30;73.30;;;;;;5033372;28;20204;-81
2022/05/01 03:14:30;;;;;;;9.13;7.87;;;14.30;73.30;;;;;;5030142;28;20304;-82
2022/05/01 03:16:58;;;;;;;8.13;7.30;;;14.30;73.40;;;;;;5009356;28;20210;-81
2022/05/01 03:22:11;;;;;;;13.77;7.90;;;14.30;73.80;;;;;;5029815;28;20217;-81
2022/05/01 03:24:39;;;;;;;12.37;8.57;;;14.20;74.10;;;;;;5010788;28;20230;-81
2022/05/01 03:27:08;;;;;;;8.97;8.07;;;14.20;74.20;;;;;;5016496;28;20231;-82
2022/05/01 03:29:37;;;;;;;9.00;8.10;;;14.20;74.60;;;;;;5044143;28;20218;-81
2022/05/01 03:32:07;;;;;;;8.37;7.50;;;14.20;75.00;;;;;;5043695;28;20201;-81
2022/05/01 03:34:39;;;;;;;11.00;7.87;;;14.20;75.40;;;;;;5027612;28;20233;-81
2022/05/01 03:37:07;;;;;;;9.53;7.70;;;14.20;75.70;;;;;;5037006;28;20233;-81
2022/05/01 03:39:35;;;;;;;10.67;7.23;;;14.20;75.90;;;;;;5027729;28;20205;-81
2022/05/01 03:42:04;;;;;;;14.53;8.50;;;14.20;76.00;;;;;;5021833;28;20281;-81
2022/05/01 03:44:31;;;;;;;12.37;7.63;;;14.20;76.00;;;;;;5024465;28;20228;-81
2022/05/01 03:46:58;;;;;;;10.03;7.93;;;14.20;76.00;;;;;;5035290;28;20204;-80
2022/05/01 03:49:26;;;;;;;9.40;8.40;;;14.20;76.00;;;;;;5038939;28;20185;-81
2022/05/01 03:51:53;;;;;;;11.03;8.20;;;14.20;76.10;;;;;;5026980;28;20214;-81
2022/05/01 03:54:22;;;;;;;10.00;9.03;;;14.20;76.10;;;;;;5030454;28;20208;-81
2022/05/01 03:56:49;;;;;;;9.80;8.50;;;14.20;76.20;;;;;;5031166;28;20244;-81
2022/05/01 03:59:17;;;;;;;11.10;8.30;;;14.20;76.20;;;;;;5020747;28;20700;-81
2022/05/01 04:01:44;;;;;;;9.47;8.47;;;14.10;76.30;;;;;;5036208;28;20256;-81
2022/05/01 04:04:12;;;;;;;9.43;8.53;;;14.10;76.40;;;;;;5019931;28;20546;-81
2022/05/01 04:06:39;;;;;;;12.40;9.00;;;14.10;76.80;;;;;;5036289;28;20208;-81
2022/05/01 04:09:07;;;;;;;9.20;8.30;;;14.10;77.00;;;;;;5029411;28;20228;-82
2022/05/01 04:11:34;;;;;;;14.07;9.27;;;14.10;76.90;;;;;;5025276;28;20204;-81
2022/05/01 04:14:02;;;;;;;10.17;8.30;;;14.10;76.90;;;;;;5013486;28;20218;-81
2022/05/01 04:16:29;;;;;;;8.60;7.77;;;14.10;77.20;;;;;;5020883;28;20255;-81
2022/05/01 04:18:57;;;;;;;18.00;9.00;;;14.20;77.60;;;;;;5017350;28;20283;-81
2022/05/01 04:21:24;;;;;;;11.43;8.90;;;14.20;77.80;;;;;;5019864;28;20251;-81
2022/05/01 04:23:51;;;;;;;10.57;8.47;;;14.20;78.30;;;;;;5026259;28;20200;-81
2022/05/01 04:26:19;;;;;;;9.73;8.73;;;14.20;78.40;;;;;;5033473;28;20676;-81
2022/05/01 04:31:32;;;;;;;13.73;9.00;;;14.20;78.70;;;;;;5028383;28;20569;-80
2022/05/01 04:34:00;;;;;;;8.63;7.73;;;14.20;78.70;;;;;;5033690;28;20233;-81
2022/05/01 04:36:27;;;;;;;10.63;8.77;;;14.20;78.80;;;;;;5038916;28;20211;-81
2022/05/01 04:38:54;;;;;;;9.87;8.30;;;14.30;79.10;;;;;;5035906;28;20257;-83
2022/05/01 04:41:22;;;;;;;10.87;8.73;;;14.30;78.80;;;;;;5029989;28;20245;-81
2022/05/01 04:43:49;;;;;;;9.37;8.30;;;14.30;77.80;;;;;;5027996;28;20208;-81
2022/05/01 04:46:17;;;;;;;9.60;8.07;;;14.20;77.80;;;;;;5027989;28;20218;-82
2022/05/01 04:48:44;;;;;;;9.10;8.03;;;14.20;78.20;;;;;;5026946;28;20642;-81
2022/05/01 04:51:11;;;;;;;10.57;8.77;;;14.20;78.10;;;;;;5028459;28;20317;-82
2022/05/01 04:53:39;;;;;;;9.00;8.10;;;14.30;78.20;;;;;;5035499;28;20235;-81
2022/05/01 04:58:52;;;;;;;8.43;7.63;;;14.30;78.50;;;;;;5029692;28;20233;-81
2022/05/01 05:01:19;;;;;;;9.37;8.07;;;14.40;79.10;;;;;;5041812;28;20202;-81
2022/05/01 05:03:46;;;;;;;9.33;8.40;;;14.40;79.20;;;;;;5041650;28;20250;-81
2022/05/01 05:06:14;;;;;;;10.00;8.33;;;14.50;78.90;;;;;;5027242;28;20286;-81
2022/05/01 05:11:27;;;;;;;10.47;8.00;;;14.50;78.90;;;;;;5048922;28;20233;-81
2022/05/01 05:13:54;;;;;;;12.30;9.13;;;14.50;79.10;;;;;;5055018;28;20204;-82
2022/05/01 05:16:22;;;;;;;11.50;9.60;;;14.50;79.00;;;;;;5027733;28;20239;-81
2022/05/01 05:18:49;;;;;;;10.47;9.27;;;14.60;78.80;;;;;;5033056;28;20258;-81
2022/05/01 05:21:17;;;;;;;14.30;9.83;;;14.60;77.90;;;;;;5034814;28;20638;-83
2022/05/01 05:23:44;;;;;;;11.13;9.30;;;14.60;77.90;;;;;;5004937;28;20636;-83
2022/05/01 05:26:11;;;;;;;10.67;9.60;;;14.70;78.00;;;;;;5038901;28;20297;-82
2022/05/01 05:28:39;;;;;;;11.40;9.17;;;14.70;78.10;;;;;;5039503;28;20252;-81
2022/05/01 05:31:06;;;;;;;16.90;9.77;;;14.80;77.80;;;;;;5038272;28;20218;-81
2022/05/01 05:33:34;;;;;;;10.00;9.00;;;14.80;77.50;;;;;;5025440;28;20213;-81
2022/05/01 05:36:02;;;;;;;12.10;9.80;;;14.90;77.00;;;;;;5039465;28;20386;-82
2022/05/01 05:38:30;;;;;;;13.17;9.67;;;14.90;76.10;;;;;;5021793;28;20212;-80
2022/05/01 05:40:57;;;;;;;10.33;9.23;;;15.00;76.40;;;;;;5021595;28;20304;-81
2022/05/01 05:43:25;;;;;;;12.97;9.40;;;15.10;77.40;;;;;;5048904;28;20633;-81
2022/05/01 05:45:53;;;;;;;11.00;9.90;;;15.20;78.00;;;;;;5021602;28;20650;-81
2022/05/01 05:48:23;;;;;;;13.73;10.10;;;15.30;77.80;;;;;;5038643;28;20277;-80
2022/05/01 05:50:51;;;;;;;13.87;9.67;;;15.50;77.40;;;;;;5036001;28;20249;-81
2022/05/01 05:53:19;;;;;;;15.47;10.07;;;15.60;76.60;;;;;;5041409;28;20219;-81
2022/05/01 05:55:50;;;;;;;11.43;9.93;;;15.70;76.10;;;;;;5035099;28;20239;-81
2022/05/01 05:58:21;;;;;;;11.67;10.47;;;15.90;75.20;;;;;;5017568;28;20511;-80
2022/05/01 06:00:49;;;;;;;11.67;9.93;;;16.00;74.60;;;;;;5017926;28;20200;-81
2022/05/01 06:03:18;;;;;;;12.93;9.90;;;16.20;74.70;;;;;;5033356;28;20238;-81
2022/05/01 06:05:46;;;;;;;12.30;8.83;;;16.30;74.50;;;;;;5019291;28;20216;-81
2022/05/01 06:08:15;;;;;;;13.97;9.93;;;16.50;74.10;;;;;;5007767;28;20294;-81
2022/05/01 06:10:42;;;;;;;12.33;10.33;;;16.60;73.70;;;;;;5023006;28;20310;-81
2022/05/01 06:13:09;;;;;;;12.57;11.27;;;16.70;73.10;;;;;;5020567;28;20269;-82
2022/05/01 06:15:38;;;;;;;15.13;11.37;;;16.90;72.00;;;;;;5025637;28;20230;-82
2022/05/01 06:18:05;;;;;;;18.50;12.67;;;17.00;71.00;;;;;;5032849;28;20203;-81
2022/05/01 06:21:01;;;;;;;16.43;12.63;;;17.10;70.50;;;;;;5027839;28;20278;-81
2022/05/01 06:23:28;;;;;;;14.10;11.73;;;17.30;70.00;;;;;;5013595;28;20681;-81
2022/05/01 06:25:56;;;;;;;13.53;12.13;;;17.40;69.70;;;;;;5018443;28;20216;-81
2022/05/01 06:28:23;;;;;;;13.00;11.70;;;17.50;68.80;;;;;;5028917;28;20200;-80
2022/05/01 06:30:51;;;;;;;16.30;12.50;;;17.70;67.80;;;;;;5020364;28;20208;-79
2022/05/01 06:33:21;;;;;;;14.13;12.73;;;17.80;67.00;;;;;;5008640;28;20310;-80
2022/05/01 06:35:52;;;;;;;15.37;12.63;;;17.90;66.70;;;;;;5032835;28;20702;-80
2022/05/01 06:38:20;;;;;;;14.27;12.90;;;18.00;66.30;;;;;;5029997;28;20226;-80
2022/05/01 06:40:47;;;;;;;15.20;13.43;;;18.10;66.40;;;;;;5022738;28;20751;-81
2022/05/01 06:43:18;;;;;;;14.80;12.90;;;18.20;66.20;;;;;;5011310;28;20216;-80
2022/05/01 06:45:47;;;;;;;19.53;13.83;;;18.30;65.80;;;;;;5020844;28;20209;-80
2022/05/01 06:48:18;;;;;;;17.20;13.43;;;18.40;65.40;;;;;;5023201;28;20210;-79
2022/05/01 06:50:46;;;;;;;14.73;13.07;;;18.50;65.70;;;;;;5025301;28;20307;-80
2022/05/01 06:53:13;;;;;;;15.20;13.70;;;18.40;65.00;;;;;;5027222;28;20640;-81
2022/05/01 06:55:41;;;;;;;14.67;13.07;;;18.40;65.80;;;;;;5021656;28;20695;-82
2022/05/01 06:58:14;;;;;;;14.23;12.83;;;18.30;66.30;;;;;;5020061;28;20209;-81
2022/05/01 07:00:41;;;;;;;16.20;13.77;;;18.30;66.10;;;;;;5032218;28;20196;-82
2022/05/01 07:03:08;;;;;;;14.40;12.87;;;18.40;66.20;;;;;;5011086;28;20209;-82
2022/05/01 07:05:36;;;;;;;19.23;13.70;;;18.40;66.60;;;;;;5016826;28;20527;-82
2022/05/01 07:08:04;;;;;;;14.30;12.80;;;18.40;66.70;;;;;;5032985;28;20228;-82
2022/05/01 07:10:31;;;;;;;16.37;12.93;;;18.40;66.60;;;;;;5024899;28;20231;-82
2022/05/01 07:12:58;;;;;;;18.17;13.67;;;18.50;66.70;;;;;;5009886;28;20204;-83
2022/05/01 07:15:26;;;;;;;15.57;12.43;;;18.50;66.60;;;;;;5022130;28;20232;-82
2022/05/01 07:17:54;;;;;;;14.97;13.20;;;18.70;66.90;;;;;;5025267;28;20608;-82
2022/05/01 07:20:21;;;;;;;15.67;13.73;;;18.70;66.80;;;;;;5024714;28;20196;-82
2022/05/01 07:22:48;;;;;;;16.20;14.03;;;18.80;66.10;;;;;;5021544;28;20279;-81
2022/05/01 07:25:16;;;;;;;16.60;14.90;;;18.90;66.30;;;;;;5015596;28;20645;-81
2022/05/01 07:27:43;;;;;;;15.33;13.73;;;19.10;66.50;;;;;;5012488;28;20208;-80
2022/05/01 07:30:11;;;;;;;15.63;14.03;;;19.30;66.30;;;;;;5015624;28;20204;-81
2022/05/01 07:32:38;;;;;;;16.97;14.83;;;19.40;65.30;;;;;;5009562;28;20639;-81
2022/05/01 07:35:06;;;;;;;17.40;15.77;;;19.50;64.50;;;;;;5026262;28;20315;-82
2022/05/01 07:37:34;;;;;;;16.70;14.13;;;19.50;64.70;;;;;;5020666;28;21006;-81
2022/05/01 07:40:01;;;;;;;16.77;14.97;;;19.50;64.70;;;;;;5019931;28;20205;-81
2022/05/01 07:42:28;;;;;;;16.07;13.83;;;19.50;64.30;;;;;;5024135;28;20207;-81
2022/05/01 07:44:56;;;;;;;15.70;14.10;;;19.50;64.30;;;;;;5028457;28;20281;-80
2022/05/01 07:47:23;;;;;;;17.20;14.70;;;19.40;64.60;;;;;;5020249;28;20201;-82
2022/05/01 07:49:51;;;;;;;15.57;14.10;;;19.50;63.90;;;;;;5013945;28;20217;-80
2022/05/01 07:52:19;;;;;;;16.27;14.60;;;19.40;63.70;;;;;;5015469;28;20645;-81
2022/05/01 07:54:46;;;;;;;15.50;14.03;;;19.50;63.60;;;;;;5034052;28;20530;-81
2022/05/01 07:57:13;;;;;;;16.40;14.70;;;19.50;64.20;;;;;;5047436;28;20220;-81
2022/05/01 07:59:41;;;;;;;16.43;14.83;;;19.60;64.40;;;;;;5021135;28;20213;-80
2022/05/01 08:02:09;;;;;;;16.20;14.70;;;19.70;64.50;;;;;;5042497;28;20222;-81
2022/05/01 08:04:36;;;;;;;13.77;12.47;;;19.90;64.60;;;;;;5030537;28;20235;-81
2022/05/01 08:07:04;;;;;;;21.43;15.47;;;20.00;63.50;;;;;;5038265;28;20243;-80
2022/05/01 08:09:32;;;;;;;22.73;14.77;;;20.20;63.30;;;;;;5042901;28;20205;-81
2022/05/01 08:12:00;;;;;;;12.67;11.50;;;20.20;62.30;;;;;;5038565;28;20263;-82
2022/05/01 08:14:27;;;;;;;14.63;12.47;;;20.30;62.40;;;;;;5024613;28;20222;-82
2022/05/01 08:16:55;;;;;;;14.60;12.00;;;20.40;60.20;;;;;;5022792;28;20292;-82
2022/05/01 08:22:09;;;;;;;14.50;12.00;;;20.90;61.10;;;;;;5051388;28;20216;-82
2022/05/01 08:24:36;;;;;;;12.33;11.03;;;21.20;58.30;;;;;;5013106;28;20209;-81
2022/05/01 08:27:07;;;;;;;12.20;10.93;;;21.40;57.30;;;;;;5019553;28;20201;-82
2022/05/01 08:29:39;;;;;;;13.17;10.43;;;21.60;57.90;;;;;;5034562;28;20260;-82
2022/05/01 08:32:07;;;;;;;12.20;8.77;;;21.80;57.80;;;;;;5030651;28;20203;-81
2022/05/01 08:34:34;;;;;;;12.77;10.00;;;22.10;57.00;;;;;;5033499;28;20213;-82
2022/05/01 08:37:02;;;;;;;10.00;9.10;;;22.40;55.80;;;;;;5042504;28;20226;-82
2022/05/01 08:39:30;;;;;;;11.10;9.27;;;22.60;53.50;;;;;;5039879;28;20211;-81
2022/05/01 08:41:58;;;;;;;11.43;8.37;;;22.70;50.90;;;;;;5035325;28;20214;-81
2022/05/01 08:44:34;;;;;;;9.10;8.20;;;22.70;50.80;;;;;;5035558;28;20203;-81
2022/05/01 08:47:27;;;;;;;9.10;7.90;;;22.80;52.40;;;;;;5037636;28;20199;-84
2022/05/01 08:49:59;;;;;;;9.63;7.70;;;22.80;49.30;;;;;;5036351;28;20217;-81
2022/05/01 08:52:29;;;;;;;10.30;8.40;;;22.80;49.70;;;;;;5047728;28;20689;-82
2022/05/01 08:54:58;;;;;;;8.60;7.77;;;22.90;51.00;;;;;;5032673;28;20203;-82
2022/05/01 08:57:27;;;;;;;10.33;7.93;;;23.10;51.30;;;;;;5032791;28;20223;-81
2022/05/01 08:59:55;;;;;;;10.43;8.17;;;23.30;50.90;;;;;;5023959;28;20222;-82
2022/05/01 09:02:25;;;;;;;8.80;7.87;;;23.50;49.30;;;;;;5046424;28;20203;-81
2022/05/01 09:04:52;;;;;;;9.07;7.37;;;23.70;49.60;;;;;;5045672;28;20234;-83
2022/05/01 09:07:23;;;;;;;9.73;7.80;;;23.80;48.50;;;;;;5034825;28;20214;-85
2022/05/01 09:09:52;;;;;;;8.30;7.50;;;23.80;46.40;;;;;;5022204;28;20211;-83
2022/05/01 09:15:06;;;;;;;6.97;6.37;;;23.80;46.50;;;;;;5037939;28;20275;-84
2022/05/01 09:17:34;;;;;;;7.00;6.30;;;23.90;46.60;;;;;;5036715;28;20249;-83
2022/05/01 09:20:10;;;;;;;7.97;6.40;;;23.90;46.80;;;;;;5047100;28;20194;-82
2022/05/01 09:22:50;;;;;;;10.67;6.00;;;24.00;47.40;;;;;;5032629;28;20198;-83
2022/05/01 09:25:27;;;;;;;4.73;3.70;;;24.10;47.90;;;;;;5017633;28;20684;-86
2022/05/01 09:27:57;;;;;;;6.97;3.80;;;24.30;44.60;;;;;;5022613;28;20531;-86
2022/05/01 09:30:38;;;;;;;10.63;4.00;;;24.30;43.80;;;;;;5037773;28;20217;-85
2022/05/01 09:33:18;;;;;;;4.63;3.80;;;24.40;43.10;;;;;;5036943;28;20309;-84
2022/05/01 09:35:47;;;;;;;5.07;3.63;;;24.40;43.90;;;;;;5036831;28;20207;-87
2022/05/01 09:38:26;;;;;;;4.27;3.60;;;24.50;41.60;;;;;;5043766;28;20230;-88
2022/05/01 09:40:57;;;;;;;4.67;3.63;;;24.40;40.60;;;;;;5037798;28;20261;-85
2022/05/01 09:43:42;;;;;;;5.83;4.00;;;24.30;41.50;;;;;;5042911;28;20595;-84
2022/05/01 09:46:23;;;;;;;4.43;3.10;;;24.30;41.30;;;;;;5042020;28;20214;-83
2022/05/01 09:49:04;;;;;;;3.80;3.43;;;24.20;40.80;;;;;;5042234;28;20209;-84
2022/05/01 09:51:46;;;;;;;4.37;3.60;;;24.10;42.10;;;;;;5052322;28;20203;-83
2022/05/01 09:54:19;;;;;;;4.93;3.87;;;24.10;43.00;;;;;;5030378;28;20285;-84
2022/05/01 09:57:00;;;;;;;7.07;4.73;;;24.20;41.00;;;;;;5038286;28;20234;-84
2022/05/01 09:59:45;;;;;;;4.17;3.77;;;24.40;41.50;;;;;;5035890;28;20215;-85
2022/05/01 10:02:14;;;;;;;4.63;4.20;;;24.50;41.10;;;;;;5010401;28;20203;-82
2022/05/01 10:04:45;;;;;;;4.10;3.70;;;24.70;40.80;;;;;;5038295;28;20207;-85
2022/05/01 10:07:16;;;;;;;5.37;3.63;;;24.90;42.10;;;;;;5045193;28;20203;-84
2022/05/01 10:09:46;;;;;;;5.97;3.73;;;25.10;42.20;;;;;;5022527;28;20208;-83
2022/05/01 10:12:16;;;;;;;4.37;3.97;;;25.20;41.80;;;;;;5039938;28;20222;-84
2022/05/01 10:14:44;;;;;;;7.83;5.20;;;25.20;40.50;;;;;;5056596;28;20209;-82
2022/05/01 10:17:11;;;;;;;7.30;4.20;;;25.00;41.70;;;;;;5011522;28;20223;-84
2022/05/01 10:19:41;;;;;;;6.30;3.90;;;24.80;38.40;;;;;;5032312;28;20203;-85
2022/05/01 10:22:10;;;;;;;4.90;3.77;;;24.60;41.30;;;;;;5013847;28;20207;-85
2022/05/01 10:24:38;;;;;;;5.27;4.60;;;24.40;41.20;;;;;;5033548;28;20643;-84
2022/05/01 10:27:24;;;;;;;6.40;3.57;;;24.20;39.70;;;;;;5019779;28;20205;-84
2022/05/01 10:33:09;;;;;;;7.27;3.43;;;23.80;41.90;;;;;;5037689;28;20264;-84
2022/05/01 10:35:45;;;;;;;6.70;4.23;;;23.70;44.40;;;;;;5046661;28;20210;-83
2022/05/01 10:38:24;;;;;;;5.57;3.77;;;23.80;42.90;;;;;;5041829;28;20249;-84
2022/05/01 10:40:55;;;;;;;4.23;3.77;;;23.90;43.70;;;;;;5031734;28;20329;-82
2022/05/01 10:43:27;;;;;;;4.70;3.57;;;24.00;43.70;;;;;;5039818;28;20638;-84
2022/05/01 10:46:00;;;;;;;4.77;4.17;;;24.10;42.80;;;;;;5023753;28;20237;-83
2022/05/01 10:48:40;;;;;;;4.20;3.80;;;24.30;42.10;;;;;;5031196;28;20209;-84
2022/05/01 10:51:36;;;;;;;3.23;2.93;;;24.50;42.50;;;;;;5038486;28;20218;-83
2022/05/01 10:54:10;;;;;;;5.10;3.63;;;24.90;44.00;;;;;;5014157;28;20214;-83
2022/05/01 10:57:09;;;;;;;6.03;3.47;;;25.30;43.20;;;;;;5040400;28;20626;-86
2022/05/01 10:59:42;;;;;;;5.80;3.90;;;25.70;43.50;;;;;;5010719;28;20207;-83
2022/05/01 11:02:22;;;;;;;4.13;2.67;;;26.00;42.40;;;;;;5035349;28;20198;-84
2022/05/01 11:04:54;;;;;;;4.00;3.70;;;26.30;42.40;;;;;;5040244;28;20205;-83
2022/05/01 11:07:25;;;;;;;3.90;3.60;;;26.60;41.60;;;;;;5042644;28;20226;-84
2022/05/01 11:10:00;;;;;;;4.57;3.73;;;26.90;41.70;;;;;;5040223;28;20307;-84
2022/05/01 11:12:32;;;;;;;4.17;3.63;;;27.00;40.90;;;;;;5026263;28;20547;-83
2022/05/01 11:15:29;;;;;;;4.30;3.50;;;26.90;39.10;;;;;;5023666;28;20329;-83
2022/05/01 11:17:57;;;;;;;6.43;4.37;;;26.60;40.10;;;;;;5002184;28;20234;-83
2022/05/01 11:20:52;;;;;;;6.77;4.13;;;26.20;40.80;;;;;;5012807;28;20300;-83
2022/05/01 11:23:31;;;;;;;4.37;3.80;;;25.90;41.90;;;;;;5021410;28;20200;-83
2022/05/01 11:26:19;;;;;;;5.17;3.83;;;25.80;42.70;;;;;;5007966;28;20228;-84
2022/05/01 11:28:52;;;;;;;3.43;3.13;;;25.60;41.30;;;;;;4991210;28;20215;-85
2022/05/01 11:31:39;;;;;;;3.70;3.40;;;25.40;41.20;;;;;;5023187;28;20212;-83
2022/05/01 11:34:20;;;;;;;6.00;4.40;;;25.20;41.30;;;;;;5038492;28;20673;-83
2022/05/01 11:37:04;;;;;;;6.17;5.03;;;24.90;42.10;;;;;;5037792;28;20226;-82
2022/05/01 11:39:49;;;;;;;5.17;4.53;;;24.80;43.70;;;;;;5019912;28;20204;-83
2022/05/01 11:42:32;;;;;;;5.47;4.50;;;24.80;44.00;;;;;;5003891;28;20203;-83
2022/05/01 11:45:04;;;;;;;9.43;6.17;;;25.00;44.90;;;;;;5021349;28;20211;-82
2022/05/01 11:47:35;;;;;;;8.40;7.57;;;25.30;44.50;;;;;;5009618;28;20211;-82
2022/05/01 11:50:03;;;;;;;7.63;6.93;;;25.70;44.80;;;;;;5006534;28;20262;-83
2022/05/01 11:52:36;;;;;;;9.27;6.30;;;25.90;43.90;;;;;;5041930;28;20370;-82
2022/05/01 11:55:08;;;;;;;6.30;5.40;;;26.20;43.90;;;;;;5030974;28;20292;-82
2022/05/01 12:03:03;;;;;;;5.60;5.10;;;26.60;41.80;;;;;;4998446;28;20189;-82
2022/05/01 12:05:33;;;;;;;7.10;6.40;;;26.60;41.00;;;;;;5007645;28;20651;-81
2022/05/01 12:08:00;;;;;;;7.97;7.17;;;26.70;42.60;;;;;;4999047;28;20204;-82
2022/05/01 12:10:41;;;;;;;10.33;6.77;;;26.70;42.00;;;;;;4997881;28;20290;-83
2022/05/01 12:13:23;;;;;;;7.47;6.77;;;26.70;42.00;;;;;;4996790;28;20219;-83
2022/05/01 12:15:52;;;;;;;7.57;6.90;;;26.70;42.90;;;;;;4950560;28;20213;-83
2022/05/01 12:18:20;;;;;;;7.87;6.73;;;26.70;42.20;;;;;;5006317;28;20240;-83
2022/05/01 12:20:48;;;;;;;7.67;6.97;;;26.60;42.40;;;;;;5001621;28;20214;-83
2022/05/01 12:23:22;;;;;;;9.43;7.27;;;26.40;41.40;;;;;;5015603;28;20215;-83
2022/05/01 12:25:51;;;;;;;8.33;5.07;;;26.10;41.10;;;;;;4993211;28;20220;-83
2022/05/01 12:28:20;;;;;;;9.57;5.87;;;25.70;41.90;;;;;;5017856;28;20549;-84
2022/05/01 12:30:53;;;;;;;26.57;5.87;;;25.00;45.00;;;;;;5010201;28;20216;-82
2022/05/01 12:33:25;;;;;;;11.13;5.00;;;24.10;47.30;;;;;;5010936;28;20205;-83
2022/05/01 12:35:58;;;;;;;11.63;4.03;;;23.00;53.40;;;;;;5003934;28;20208;-82
2022/05/01 12:38:29;;;;;;;9.03;3.50;;;21.70;56.30;;;;;;4998450;28;20224;-84
2022/05/01 12:44:23;;;;;;;9.90;4.40;;;19.90;58.90;;;;;;5010311;28;20217;-85
2022/05/01 12:46:53;;;;;;;10.07;4.90;;;19.20;61.70;;;;;;4998477;28;20207;-84
2022/05/01 12:49:28;;;;;;;13.70;7.40;;;18.80;65.50;;;;;;4993776;28;20222;-83
2022/05/01 12:51:56;;;;;;;10.80;6.40;;;18.50;69.10;;;;;;4992409;28;20213;-83
2022/05/01 12:54:23;;;;;;;10.67;7.47;;;18.40;73.20;;;;;;4992554;28;20249;-84
2022/05/01 12:56:50;;;;;;;9.00;6.70;;;18.40;75.80;;;;;;5022381;28;20949;-83
2022/05/01 12:59:30;;;;;;;6.83;5.10;;;18.40;77.70;;;;;;5021233;28;20220;-82
2022/05/01 13:01:59;;;;;;;6.57;4.57;;;18.30;71.20;;;;;;5010447;28;20743;-84
2022/05/01 13:22:54;;;;;;;6.43;5.37;;;17.80;70.10;;;;;;5121665;27;20542;-71
2022/05/01 13:25:21;;;;;;;7.57;4.87;;;17.60;74.00;;;;;;5089520;28;20209;-70
2022/05/01 13:27:49;;;;;;;6.23;5.63;;;17.60;74.90;;;;;;5114689;28;20198;-70
2022/05/01 13:30:16;;;;;;;9.00;4.83;;;17.50;77.00;;;;;;5099292;28;20229;-70
2022/05/01 13:32:43;;;;;;;8.10;4.80;;;17.40;75.30;;;;;;5115004;28;20211;-70
2022/05/01 13:35:11;;;;;;;5.80;5.30;;;17.40;75.00;;;;;;5125575;27;20260;-70
2022/05/01 13:37:38;;;;;;;6.93;6.30;;;17.40;75.60;;;;;;5127772;28;20206;-70
2022/05/01 13:45:38;;;;;;;7.97;6.37;;;17.30;82.90;;;;;;5123600;28;20245;-70
2022/05/01 13:48:06;;;;;;;7.90;6.20;;;17.30;84.10;;;;;;5122899;27;20222;-71
2022/05/01 13:50:35;;;;;;;13.03;7.50;;;17.30;85.30;;;;;;5115327;27;20231;-71
2022/05/01 13:53:03;;;;;;;8.13;6.63;;;17.30;84.40;;;;;;5114606;28;20287;-71
2022/05/01 13:55:30;;;;;;;8.10;6.83;;;17.30;85.10;;;;;;5125196;28;20200;-72